Terminal Aerodrome Forecast
Issued by NWS Brownsville, TX

Home | Current Version | Previous Version | Text Only | Print | Product List | Glossary On
Versions: 1 2 3 4 5 6 7 8 9 10 11 12 13 14 15 16 17 18 19 20 21 22 23 24 25 26 27 28 29
000
FTUS44 KBRO 010500 RRA
TAFBRO
TAF
KBRO 010541Z 0106/0206 13006KT P6SM FEW020 SCT250
     FM011700 12014KT P6SM SCT030
     FM020200 11008KT P6SM FEW250=

USA.gov is the U.S. government's official web portal to all federal, state and local government web resources and services.